Time;durP1;ratioP1;P1;durP2;ratioP2;P2;SDS_P1;SDS_P2;PMS_P1;PMS_P2;Temp;Humidity;BMP_temperature;BMP_pressure;BME280_temperature;BME280_humidity;BME280_pressure;Samples;Min_cycle;Max_cycle;Signal;HPM_P1;HPM_P2
2021/07/17 00:02:00;;;;;;;;;6.25;6.25;;;;;26.62;42.73;102507.31;5062093;28;46349;-77
2021/07/17 00:04:27;;;;;;;;;6.50;6.50;;;;;26.52;42.52;102493.31;5077708;28;45437;-77
2021/07/17 00:06:52;;;;;;;;;5.00;5.00;;;;;26.67;43.06;102509.47;5060782;28;45327;-77
2021/07/17 00:09:18;;;;;;;;;4.33;4.33;;;;;26.77;42.72;102524.47;5060727;28;45556;-77
2021/07/17 00:11:44;;;;;;;;;5.00;4.00;;;;;26.67;43.05;102512.16;5060917;28;46978;-76
2021/07/17 00:14:10;;;;;;;;;5.50;5.50;;;;;26.77;42.90;102516.44;5060686;28;45483;-76
2021/07/17 00:16:35;;;;;;;;;6.50;6.00;;;;;26.46;42.62;102481.50;5060532;28;45340;-77
2021/07/17 00:19:01;;;;;;;;;5.00;5.00;;;;;26.73;42.54;102522.13;5061851;28;45352;-77
2021/07/17 00:21:28;;;;;;;;;5.25;5.25;;;;;26.63;43.29;102500.13;5060255;28;45416;-77
2021/07/17 00:23:53;;;;;;;;;8.50;6.00;;;;;26.45;42.90;102474.50;5061541;28;45310;-77
2021/07/17 00:26:19;;;;;;;;;6.00;6.00;;;;;26.61;43.08;102499.47;5060167;28;45274;-77
2021/07/17 00:28:44;;;;;;;;;4.25;4.25;;;;;26.56;42.83;102485.81;5060076;28;45347;-77
2021/07/17 00:31:10;;;;;;;;;5.00;4.25;;;;;26.70;42.73;102514.44;5076996;28;47396;-77
2021/07/17 00:33:36;;;;;;;;;5.00;5.00;;;;;26.69;43.16;102517.31;5060253;28;45450;-77
2021/07/17 00:36:01;;;;;;;;;5.00;5.00;;;;;26.61;43.11;102505.66;5061563;28;45326;-77
2021/07/17 00:38:27;;;;;;;;;6.50;6.00;;;;;26.37;43.15;102459.31;5072762;28;45256;-77
2021/07/17 00:40:52;;;;;;;;;8.67;6.67;;;;;26.63;43.26;102500.97;5061354;28;45525;-77
2021/07/17 00:43:18;;;;;;;;;6.25;6.25;;;;;26.61;43.12;102502.97;5081499;28;45335;-77
2021/07/17 00:45:43;;;;;;;;;5.25;5.25;;;;;26.71;43.13;102521.47;5081751;28;45311;-77
2021/07/17 00:48:08;;;;;;;;;6.00;6.00;;;;;26.76;42.43;102531.63;5079761;28;45280;-77
2021/07/17 00:50:34;;;;;;;;;7.00;5.00;;;;;26.71;42.94;102521.47;5060264;28;47227;-77
2021/07/17 00:53:00;;;;;;;;;2.00;0.75;;;;;26.67;42.85;102519.31;5060290;28;45441;-76
2021/07/17 00:55:27;;;;;;;;;4.00;4.00;;;;;26.63;43.25;102505.47;5059237;28;45420;-76
2021/07/17 00:57:55;;;;;;;;;6.50;5.50;;;;;26.60;43.15;102506.66;5059102;28;45534;-76
2021/07/17 01:00:21;;;;;;;;;5.00;5.00;;;;;26.77;43.00;102521.78;5060632;28;45447;-77
2021/07/17 01:03:03;;;;;;;;;7.00;7.00;;;;;26.64;42.68;102507.16;5060994;28;45451;-76
2021/07/17 01:05:28;;;;;;;;;5.50;5.50;;;;;26.62;42.78;102506.50;5060777;28;45268;-76
2021/07/17 01:07:54;;;;;;;;;8.00;6.75;;;;;26.76;43.23;102530.78;5060539;28;45236;-77
2021/07/17 01:10:20;;;;;;;;;6.00;6.00;;;;;26.61;43.17;102511.00;5060324;28;45460;-77
2021/07/17 01:12:49;;;;;;;;;6.25;6.25;;;;;26.66;42.56;102513.16;5060686;28;45359;-77
2021/07/17 01:15:15;;;;;;;;;6.00;5.00;;;;;26.60;42.55;102511.16;5060771;28;45383;-77
2021/07/17 01:17:40;;;;;;;;;5.75;5.00;;;;;26.61;43.08;102504.81;5060892;28;45220;-77
2021/07/17 01:20:09;;;;;;;;;4.25;4.25;;;;;26.65;43.05;102510.66;5058768;28;46008;-77
2021/07/17 01:22:36;;;;;;;;;5.75;4.75;;;;;26.74;42.67;102521.13;5075762;28;45371;-76
2021/07/17 01:25:07;;;;;;;;;5.25;5.25;;;;;26.58;43.38;102495.31;5060942;28;45470;-77
2021/07/17 01:27:32;;;;;;;;;5.00;5.00;;;;;26.63;42.89;102516.16;5060297;28;45329;-77
2021/07/17 01:29:58;;;;;;;;;3.75;3.25;;;;;26.67;43.17;102513.97;5064228;28;45390;-76
2021/07/17 01:32:24;;;;;;;;;5.00;5.00;;;;;26.64;43.14;102504.47;5060762;28;45303;-76
2021/07/17 01:34:49;;;;;;;;;4.00;4.00;;;;;26.70;43.19;102509.13;5060497;28;45399;-77
2021/07/17 01:37:15;;;;;;;;;4.00;4.00;;;;;26.58;43.05;102494.47;5079440;28;45235;-76
2021/07/17 01:39:41;;;;;;;;;5.00;5.00;;;;;26.76;42.76;102523.63;5062863;27;45924;-77
2021/07/17 01:42:08;;;;;;;;;3.50;3.50;;;;;26.71;43.01;102521.47;5070751;28;45348;-77
2021/07/17 01:44:41;;;;;;;;;5.25;5.25;;;;;26.76;43.18;102528.97;5080580;28;45362;-77
2021/07/17 01:47:06;;;;;;;;;7.00;4.75;;;;;26.76;43.44;102530.78;5080728;28;45469;-77
2021/07/17 01:49:32;;;;;;;;;4.00;4.00;;;;;26.55;43.10;102494.81;5080309;28;45404;-77
2021/07/17 01:51:57;;;;;;;;;7.75;5.00;;;;;26.65;42.82;102518.66;5096301;27;45405;-76
2021/07/17 01:54:23;;;;;;;;;5.50;5.00;;;;;26.74;42.86;102530.97;5079346;28;45294;-77
2021/07/17 01:56:48;;;;;;;;;4.50;4.50;;;;;26.56;43.25;102505.34;5080421;28;45366;-77
2021/07/17 01:59:13;;;;;;;;;4.00;4.00;;;;;26.58;42.97;102497.16;5080192;28;46555;-76
2021/07/17 02:01:39;;;;;;;;;5.00;5.00;;;;;26.63;43.01;102514.31;5079182;28;45325;-77
2021/07/17 02:04:04;;;;;;;;;6.25;4.50;;;;;26.34;42.70;102472.16;5079212;28;45523;-77
2021/07/17 02:06:30;;;;;;;;;5.33;5.33;;;;;26.67;42.73;102522.84;5062936;28;45440;-77
2021/07/17 02:08:55;;;;;;;;;5.75;5.75;;;;;26.66;43.28;102522.97;5059195;28;46016;-77
2021/07/17 02:11:22;;;;;;;;;3.75;3.75;;;;;26.74;43.05;102531.81;5059400;28;45330;-77
2021/07/17 02:13:49;;;;;;;;;7.50;4.75;;;;;26.72;42.62;102533.81;5059071;28;45270;-77
2021/07/17 02:16:15;;;;;;;;;5.00;5.00;;;;;26.62;43.21;102522.50;5058680;28;45311;-77
2021/07/17 02:18:43;;;;;;;;;5.25;5.25;;;;;26.51;42.76;102499.69;5059746;28;45425;-77
2021/07/17 02:21:08;;;;;;;;;6.00;6.00;;;;;26.52;43.34;102498.66;5075597;28;45331;-77
2021/07/17 02:23:35;;;;;;;;;7.00;5.33;;;;;26.68;42.99;102523.63;5058744;28;45369;-77
2021/07/17 02:26:00;;;;;;;;;6.00;6.00;;;;;26.73;42.96;102529.28;5060152;28;45260;-78
2021/07/17 02:28:26;;;;;;;;;4.00;4.00;;;;;26.72;43.07;102530.31;5058326;28;47336;-77
2021/07/17 02:30:51;;;;;;;;;4.25;4.25;;;;;26.55;42.84;102503.66;5064041;28;45240;-77
2021/07/17 02:33:18;;;;;;;;;5.00;5.00;;;;;26.73;42.63;102532.81;5059793;28;45211;-77
2021/07/17 02:35:44;;;;;;;;;7.25;4.50;;;;;26.57;42.58;102506.97;5059851;28;45254;-76
2021/07/17 02:38:09;;;;;;;;;5.00;5.00;;;;;26.71;42.60;102531.31;5073018;28;45197;-77
2021/07/17 02:40:35;;;;;;;;;5.00;4.50;;;;;26.46;42.95;102497.53;5059859;28;45233;-77
2021/07/17 02:43:00;;;;;;;;;4.00;4.00;;;;;26.72;42.96;102536.50;5076166;28;46015;-77
2021/07/17 02:45:26;;;;;;;;;5.00;5.00;;;;;26.58;42.88;102506.00;5061026;28;45390;-77
2021/07/17 02:47:51;;;;;;;;;6.00;6.00;;;;;26.73;42.61;102535.47;5059350;28;46582;-77
2021/07/17 02:50:17;;;;;;;;;4.75;4.75;;;;;26.38;42.92;102477.00;5058302;28;45262;-77
2021/07/17 02:52:43;;;;;;;;;4.50;4.50;;;;;26.74;42.71;102530.97;5059619;28;45378;-77
2021/07/17 02:55:09;;;;;;;;;4.75;4.75;;;;;26.68;42.64;102519.13;5059550;28;45263;-76
2021/07/17 02:57:35;;;;;;;;;6.75;6.00;;;;;26.53;43.02;102492.31;5059208;28;45566;-77
2021/07/17 03:00:01;;;;;;;;;7.25;6.00;;;;;26.59;42.84;102493.47;5059148;28;45288;-77
2021/07/17 03:02:27;;;;;;;;;5.25;5.25;;;;;26.74;42.99;102520.28;5057622;28;45327;-77
2021/07/17 03:04:52;;;;;;;;;4.75;4.75;;;;;26.52;42.83;102482.63;5059394;28;45224;-77
2021/07/17 03:07:18;;;;;;;;;6.00;6.00;;;;;26.50;42.83;102480.16;5059091;28;45288;-77
2021/07/17 03:09:43;;;;;;;;;4.00;4.00;;;;;26.67;43.13;102508.66;5058940;28;45235;-77
2021/07/17 03:12:08;;;;;;;;;6.00;5.00;;;;;26.43;42.74;102460.47;5059285;28;45165;-77
2021/07/17 03:14:35;;;;;;;;;7.00;6.00;;;;;26.74;43.16;102518.47;5057483;28;45243;-76
2021/07/17 03:17:00;;;;;;;;;7.00;5.50;;;;;26.54;43.18;102483.31;5040879;28;45457;-77
2021/07/17 03:19:26;;;;;;;;;5.67;4.33;;;;;26.46;42.96;102470.00;5061440;28;45354;-77
2021/07/17 03:21:51;;;;;;;;;5.00;5.00;;;;;26.65;42.58;102503.47;5062644;28;45398;-77
2021/07/17 03:24:17;;;;;;;;;5.50;5.00;;;;;26.62;42.85;102493.16;5062905;28;45446;-77
2021/07/17 03:26:42;;;;;;;;;6.75;5.75;;;;;26.64;42.79;102499.13;5060785;28;47414;-77
2021/07/17 03:29:08;;;;;;;;;5.50;5.50;;;;;26.66;43.19;102507.81;5063512;28;45703;-77
2021/07/17 03:31:33;;;;;;;;;6.50;6.00;;;;;26.47;43.06;102474.31;5066118;27;45367;-77
2021/07/17 03:34:00;;;;;;;;;5.75;4.75;;;;;26.50;43.02;102477.47;5062436;28;45333;-77
2021/07/17 03:36:25;;;;;;;;;5.75;5.75;;;;;26.55;42.95;102492.97;5063968;28;46357;-77
2021/07/17 03:38:51;;;;;;;;;9.50;5.25;;;;;26.60;42.88;102493.31;5073250;27;45154;-77
2021/07/17 03:41:18;;;;;;;;;5.00;5.00;;;;;26.61;43.01;102497.66;5065632;28;45254;-76
2021/07/17 03:43:44;;;;;;;;;3.50;3.50;;;;;26.71;42.98;102508.13;5082892;28;45224;-76
2021/07/17 03:46:10;;;;;;;;;6.00;6.00;;;;;26.61;42.95;102497.66;5097814;27;47584;-77
2021/07/17 03:48:36;;;;;;;;;6.00;6.00;;;;;26.71;42.93;102509.94;5082619;28;45359;-76
2021/07/17 03:51:02;;;;;;;;;4.67;4.33;;;;;26.64;43.06;102499.13;5078787;28;45479;-77
2021/07/17 03:53:28;;;;;;;;;6.00;6.00;;;;;26.65;42.99;102505.31;5062013;28;45292;-76
2021/07/17 03:55:53;;;;;;;;;5.67;5.33;;;;;26.51;43.00;102487.16;5061714;28;45600;-77
2021/07/17 03:58:19;;;;;;;;;7.00;5.33;;;;;26.49;42.75;102480.34;5060545;28;45345;-77
2021/07/17 04:00:44;;;;;;;;;4.67;4.67;;;;;26.60;42.72;102506.66;5060769;28;45479;-77
2021/07/17 04:03:10;;;;;;;;;6.00;6.00;;;;;26.46;42.91;102473.50;5061849;28;45296;-76
2021/07/17 04:05:35;;;;;;;;;5.00;5.00;;;;;26.63;42.94;102513.47;5061371;28;45825;-77
2021/07/17 04:08:00;;;;;;;;;7.00;6.67;;;;;26.63;42.78;102513.47;5061866;28;45298;-76
2021/07/17 04:10:26;;;;;;;;;5.00;5.00;;;;;26.45;42.65;102489.66;5060476;28;45593;-77
2021/07/17 04:12:51;;;;;;;;;6.00;5.67;;;;;26.62;42.91;102515.31;5061627;28;45529;-77
2021/07/17 04:15:17;;;;;;;;;8.00;7.00;;;;;26.65;42.97;102513.31;5070785;27;45299;-77
2021/07/17 04:17:42;;;;;;;;;6.00;5.00;;;;;26.56;42.89;102494.66;5081012;28;45343;-77
2021/07/17 04:20:09;;;;;;;;;5.67;5.67;;;;;26.60;42.70;102498.63;5080772;28;45500;-76
2021/07/17 04:22:36;;;;;;;;;6.00;6.00;;;;;26.58;42.92;102495.31;5098199;27;45176;-77
2021/07/17 04:25:05;;;;;;;;;6.00;6.00;;;;;26.58;42.65;102494.47;5081625;28;45419;-76
2021/07/17 04:27:31;;;;;;;;;6.50;5.75;;;;;26.54;42.55;102488.66;5080359;27;45303;-76
2021/07/17 04:29:56;;;;;;;;;5.00;5.00;;;;;26.59;43.01;102497.00;5077244;28;45399;-77
2021/07/17 04:32:22;;;;;;;;;6.33;6.00;;;;;26.71;43.14;102521.47;5077246;28;45227;-76
2021/07/17 04:34:47;;;;;;;;;5.25;4.25;;;;;26.49;43.05;102491.81;5061363;28;46233;-76
2021/07/17 04:37:17;;;;;;;;;5.25;5.25;;;;;26.54;42.85;102493.16;5070282;28;45183;-77
2021/07/17 04:39:43;;;;;;;;;4.75;4.00;;;;;26.61;42.84;102504.81;5063793;27;45359;-77
2021/07/17 04:42:08;;;;;;;;;5.00;5.00;;;;;26.66;43.09;102515.81;5071681;28;45523;-77
2021/07/17 04:44:34;;;;;;;;;7.75;6.75;;;;;26.55;42.91;102503.66;5081302;28;46252;-77
2021/07/17 04:46:59;;;;;;;;;5.25;5.25;;;;;26.51;42.97;102497.00;5081870;28;45391;-77
2021/07/17 04:49:24;;;;;;;;;7.00;7.00;;;;;26.52;42.57;102491.50;5085903;27;45472;-77
2021/07/17 04:51:50;;;;;;;;;6.00;6.00;;;;;26.42;42.69;102485.47;5061380;28;45291;-77
2021/07/17 04:54:15;;;;;;;;;7.25;6.00;;;;;26.58;42.75;102506.00;5060893;28;45632;-77
2021/07/17 04:56:41;;;;;;;;;6.75;6.00;;;;;26.59;42.93;102513.00;5061098;28;45225;-77
2021/07/17 04:59:06;;;;;;;;;7.75;6.25;;;;;26.52;42.74;102507.50;5061315;28;45329;-77
2021/07/17 05:01:32;;;;;;;;;5.75;5.75;;;;;26.38;42.69;102482.34;5060848;28;45260;-77
2021/07/17 05:03:57;;;;;;;;;7.50;6.00;;;;;26.68;42.94;102528.97;5060901;28;46480;-77
2021/07/17 05:06:22;;;;;;;;;8.00;7.00;;;;;26.52;42.89;102501.31;5061167;28;45224;-77
2021/07/17 05:08:48;;;;;;;;;7.50;7.50;;;;;26.54;43.09;102506.50;5059344;28;45644;-77
2021/07/17 05:11:13;;;;;;;;;8.25;7.00;;;;;26.57;43.02;102509.66;5060821;28;45240;-77
2021/07/17 05:13:39;;;;;;;;;5.75;5.00;;;;;26.67;43.05;102519.31;5076255;28;48194;-77
2021/07/17 05:16:04;;;;;;;;;5.25;5.00;;;;;26.66;43.06;102518.47;5076537;28;45461;-76
2021/07/17 05:18:30;;;;;;;;;5.25;5.00;;;;;26.53;42.45;102497.66;5059590;28;45903;-77
2021/07/17 05:20:55;;;;;;;;;6.25;6.25;;;;;26.67;42.97;102530.84;5060844;28;45281;-77
2021/07/17 05:23:20;;;;;;;;;6.50;5.50;;;;;26.47;43.13;102499.19;5060578;28;46273;-77
2021/07/17 05:25:46;;;;;;;;;5.75;5.75;;;;;26.65;43.20;102524.81;5060476;28;45311;-77
2021/07/17 05:28:12;;;;;;;;;5.00;5.00;;;;;26.52;42.79;102510.16;5060777;28;45485;-77
2021/07/17 05:30:38;;;;;;;;;6.75;6.00;;;;;26.59;42.51;102514.84;5075774;28;46006;-77
2021/07/17 05:33:03;;;;;;;;;6.00;6.00;;;;;26.39;42.67;102485.81;5059107;28;46682;-77
2021/07/17 05:35:29;;;;;;;;;5.75;5.75;;;;;26.61;42.65;102515.50;5060701;28;45331;-77
2021/07/17 05:37:59;;;;;;;;;5.25;5.25;;;;;26.50;42.69;102504.19;5076636;28;45358;-76
2021/07/17 05:40:24;;;;;;;;;6.00;5.00;;;;;26.69;42.22;102530.66;5059467;28;45272;-77
2021/07/17 05:42:50;;;;;;;;;4.00;4.00;;;;;26.57;42.87;102519.53;5074575;28;47135;-76
2021/07/17 05:45:16;;;;;;;;;7.50;5.75;;;;;26.48;42.52;102503.53;5096097;27;45719;-77
2021/07/17 05:47:42;;;;;;;;;5.25;5.25;;;;;26.50;42.49;102504.19;5080789;28;45394;-76
2021/07/17 05:50:08;;;;;;;;;7.25;6.00;;;;;26.59;43.03;102521.00;5080472;28;45358;-76
2021/07/17 05:52:33;;;;;;;;;7.75;6.50;;;;;26.53;42.60;102516.34;5080352;28;45437;-77
2021/07/17 05:54:59;;;;;;;;;6.25;6.25;;;;;26.69;43.15;102534.16;5080396;28;45330;-76
2021/07/17 05:57:24;;;;;;;;;7.75;6.50;;;;;26.42;43.06;102490.81;5080295;28;45221;-77
2021/07/17 05:59:50;;;;;;;;;6.00;6.00;;;;;26.69;42.98;102536.84;5080062;28;45307;-77
2021/07/17 06:02:17;;;;;;;;;5.50;5.00;;;;;26.49;43.28;102507.84;5080427;28;46324;-77
2021/07/17 06:04:43;;;;;;;;;7.00;6.50;;;;;26.68;42.84;102535.16;5080372;28;45296;-77
2021/07/17 06:07:08;;;;;;;;;6.75;6.00;;;;;26.39;42.92;102496.47;5080182;28;45384;-77
2021/07/17 06:09:34;;;;;;;;;4.50;4.50;;;;;26.33;42.83;102487.34;5080208;28;45139;-77
2021/07/17 06:11:59;;;;;;;;;7.00;7.00;;;;;26.68;42.74;102545.84;5078622;28;48133;-77
2021/07/17 06:14:24;;;;;;;;;7.50;7.50;;;;;26.41;42.76;102502.50;5080025;28;45227;-77
2021/07/17 06:16:50;;;;;;;;;4.00;4.00;;;;;26.54;42.90;102531.38;5078997;28;45290;-76
2021/07/17 06:19:16;;;;;;;;;8.00;6.00;;;;;26.58;42.51;102535.34;5080439;28;45575;-77
2021/07/17 06:21:41;;;;;;;;;7.50;7.50;;;;;26.44;42.42;102515.53;5079823;28;45383;-77
2021/07/17 06:24:06;;;;;;;;;8.25;7.25;;;;;26.55;42.83;102529.50;5078849;28;45524;-77
2021/07/17 06:26:32;;;;;;;;;7.00;7.00;;;;;26.48;42.83;102519.53;5080449;28;45303;-77
2021/07/17 06:28:58;;;;;;;;;7.00;7.00;;;;;26.47;42.84;102517.84;5080563;28;45401;-77
2021/07/17 06:31:23;;;;;;;;;8.25;7.00;;;;;26.44;42.78;102510.19;5064206;28;45387;-77
2021/07/17 06:33:48;;;;;;;;;5.50;5.50;;;;;26.45;42.97;102511.03;5059895;28;45331;-77
2021/07/17 06:36:16;;;;;;;;;6.50;6.50;;;;;26.60;43.15;102537.84;5053915;28;45319;-76
2021/07/17 06:38:42;;;;;;;;;6.50;5.50;;;;;26.58;42.85;102535.34;5071811;27;45215;-77
2021/07/17 06:41:07;;;;;;;;;6.50;6.50;;;;;26.61;42.85;102542.19;5061366;28;45234;-77
2021/07/17 06:43:33;;;;;;;;;7.67;7.33;;;;;26.66;42.89;102553.19;5079979;28;45195;-77
2021/07/17 06:45:58;;;;;;;;;6.25;6.25;;;;;26.53;42.77;102535.03;5080109;28;45173;-77
2021/07/17 06:48:24;;;;;;;;;7.75;6.75;;;;;26.55;42.74;102538.34;5080101;27;45383;-70
2021/07/17 06:50:49;;;;;;;;;6.75;5.75;;;;;26.66;42.69;102553.19;5079577;28;46099;-71
2021/07/17 06:53:15;;;;;;;;;6.50;6.25;;;;;26.50;42.61;102533.53;5080469;28;45223;-70
2021/07/17 06:55:41;;;;;;;;;7.00;6.25;;;;;26.61;42.79;102544.84;5082963;27;45630;-70
2021/07/17 06:58:07;;;;;;;;;6.50;6.50;;;;;26.61;42.74;102550.19;5082648;28;45474;-71
2021/07/17 07:00:34;;;;;;;;;6.00;6.00;;;;;26.55;42.80;102532.19;5083012;28;46614;-71
2021/07/17 07:03:00;;;;;;;;;6.50;6.00;;;;;26.60;43.10;102541.34;5082134;28;45354;-72
2021/07/17 07:05:26;;;;;;;;;6.75;6.75;;;;;26.45;42.88;102517.19;5082876;28;45223;-70
2021/07/17 07:07:51;;;;;;;;;7.50;5.50;;;;;26.60;43.12;102538.69;5081087;28;45300;-73
2021/07/17 07:10:17;;;;;;;;;5.75;5.75;;;;;26.67;42.67;102554.03;5080869;28;47628;-72
2021/07/17 07:12:43;;;;;;;;;8.00;7.50;;;;;26.40;42.82;102523.03;5081547;28;45303;-71
2021/07/17 07:15:10;;;;;;;;;6.50;6.50;;;;;26.63;42.96;102561.53;5082822;28;45268;-69
2021/07/17 07:17:36;;;;;;;;;8.75;7.25;;;;;26.49;43.16;102541.72;5083057;28;45620;-73
2021/07/17 07:20:03;;;;;;;;;9.75;7.00;;;;;26.71;43.37;102569.53;5082553;28;45444;-73
2021/07/17 07:22:29;;;;;;;;;7.00;7.00;;;;;26.55;43.27;102537.53;5082874;27;45313;-70
2021/07/17 07:24:54;;;;;;;;;8.25;6.50;;;;;26.53;43.19;102537.69;5081617;27;45477;-70
2021/07/17 07:27:19;;;;;;;;;7.00;7.00;;;;;26.64;43.85;102555.19;5082666;28;45361;-72
2021/07/17 07:29:45;;;;;;;;;9.75;8.25;;;;;26.72;43.35;102575.69;5078299;28;46950;-71
2021/07/17 07:32:10;;;;;;;;;10.75;8.00;;;;;26.65;43.92;102566.72;5062419;28;45422;-73
2021/07/17 07:34:36;;;;;;;;;11.00;9.75;;;;;26.73;43.35;102574.69;5061114;28;45502;-72
2021/07/17 07:37:01;;;;;;;;;12.00;10.00;;;;;26.61;43.30;102553.69;5048051;28;46426;-71
2021/07/17 07:39:27;;;;;;;;;11.75;9.00;;;;;26.68;43.53;102569.03;5062156;28;45345;-71
2021/07/17 07:41:52;;;;;;;;;10.50;6.75;;;;;26.80;43.32;102589.03;5070603;28;45234;-72
2021/07/17 07:44:18;;;;;;;;;10.00;8.25;;;;;26.75;43.51;102578.03;5085846;27;45310;-71
2021/07/17 07:46:43;;;;;;;;;10.00;9.00;;;;;26.67;43.28;102556.69;5082721;28;45287;-71
2021/07/17 07:49:09;;;;;;;;;8.25;6.50;;;;;26.82;43.68;102579.03;5082313;28;45192;-75
2021/07/17 07:51:35;;;;;;;;;8.50;7.25;;;;;26.82;43.84;102575.50;5082465;28;45252;-71
2021/07/17 07:54:00;;;;;;;;;9.75;8.25;;;;;26.80;43.49;102577.53;5074384;28;45197;-71
2021/07/17 07:56:26;;;;;;;;;9.75;9.75;;;;;26.80;43.64;102561.50;5067447;28;45487;-71
2021/07/17 07:58:51;;;;;;;;;11.25;9.50;;;;;26.73;43.77;102567.50;5060389;28;48086;-71
2021/07/17 08:01:17;;;;;;;;;8.50;8.25;;;;;26.79;43.46;102574.00;5077044;28;45373;-69
2021/07/17 08:03:42;;;;;;;;;9.00;9.00;;;;;26.62;42.39;102547.34;5041957;28;45383;-71
2021/07/17 08:06:08;;;;;;;;;9.75;8.75;;;;;26.77;42.47;102557.34;5060161;28;45522;-72
2021/07/17 08:08:33;;;;;;;;;10.50;10.25;;;;;26.59;42.85;102534.38;5059106;28;47589;-72
2021/07/17 08:10:59;;;;;;;;;11.50;9.25;;;;;26.89;43.13;102583.66;5060719;28;45294;-71
2021/07/17 08:13:25;;;;;;;;;10.75;10.50;;;;;26.52;42.92;102520.00;5060196;28;45369;-73
2021/07/17 08:15:50;;;;;;;;;13.50;9.75;;;;;26.69;43.03;102544.00;5061610;28;45584;-73
2021/07/17 08:18:16;;;;;;;;;11.75;8.00;;;;;26.85;43.04;102570.63;5060487;28;47141;-72
2021/07/17 08:20:42;;;;;;;;;12.25;12.25;;;;;26.83;43.40;102567.31;5060373;28;45276;-72
2021/07/17 08:23:08;;;;;;;;;12.00;9.75;;;;;26.74;43.28;102550.50;5061530;28;45291;-72
2021/07/17 08:25:34;;;;;;;;;12.25;10.00;;;;;26.87;43.35;102569.66;5061410;28;45287;-72
2021/07/17 08:27:59;;;;;;;;;10.00;10.00;;;;;26.88;43.42;102572.13;5060136;28;47178;-72
2021/07/17 08:30:24;;;;;;;;;12.25;9.50;;;;;26.86;42.93;102571.47;5063029;28;45314;-72
2021/07/17 08:32:54;;;;;;;;;10.25;8.25;;;;;26.80;43.19;102566.84;5081804;28;45539;-72
2021/07/17 08:35:19;;;;;;;;;9.75;9.50;;;;;26.77;43.17;102557.34;5073672;28;45384;-72
2021/07/17 08:37:45;;;;;;;;;10.50;10.50;;;;;26.74;43.31;102550.50;5072857;28;46207;-72
2021/07/17 08:40:10;;;;;;;;;8.75;8.75;;;;;26.83;43.32;102577.16;5061009;28;45442;-72
2021/07/17 08:42:43;;;;;;;;;13.00;10.00;;;;;26.83;43.45;102569.97;5075748;28;45315;-72
2021/07/17 08:45:09;;;;;;;;;9.25;9.00;;;;;26.69;43.09;102544.84;5065624;28;45352;-72
2021/07/17 08:47:39;;;;;;;;;8.25;8.25;;;;;26.81;43.38;102564.00;5059679;28;45442;-72
2021/07/17 08:50:07;;;;;;;;;11.75;10.50;;;;;26.75;43.13;102551.34;5061378;28;45220;-72
2021/07/17 08:52:33;;;;;;;;;12.00;10.25;;;;;26.93;43.29;102566.31;5059757;28;45389;-72
2021/07/17 08:55:04;;;;;;;;;14.00;10.00;;;;;26.87;43.59;102564.31;5059451;28;45556;-72
2021/07/17 08:57:33;;;;;;;;;12.25;9.50;;;;;26.99;42.90;102592.31;5060458;28;45500;-72
2021/07/17 09:00:00;;;;;;;;;9.25;9.00;;;;;26.92;42.97;102567.28;5060818;28;45325;-72
2021/07/17 09:02:26;;;;;;;;;10.50;9.50;;;;;26.85;43.23;102549.28;5060810;28;45294;-72
2021/07/17 09:04:52;;;;;;;;;11.00;10.25;;;;;26.95;43.40;102565.13;5076003;28;45489;-72
2021/07/17 09:07:17;;;;;;;;;8.25;7.00;;;;;26.97;43.29;102556.94;5060139;28;45443;-71
2021/07/17 09:09:43;;;;;;;;;10.25;9.75;;;;;27.00;43.13;102564.59;5060651;28;45244;-72
2021/07/17 09:12:22;;;;;;;;;11.25;11.25;;;;;26.98;43.17;102553.25;5060636;28;45173;-72
2021/07/17 09:14:48;;;;;;;;;10.75;10.75;;;;;27.05;42.55;102553.41;5060556;28;45409;-72
2021/07/17 09:17:28;;;;;;;;;9.50;7.00;;;;;27.19;43.06;102575.91;5058152;28;47121;-72
2021/07/17 09:19:59;;;;;;;;;10.00;8.00;;;;;27.15;42.98;102551.38;5060623;28;45224;-72
2021/07/17 09:22:37;;;;;;;;;8.50;8.50;;;;;27.29;43.22;102565.00;5060903;28;45347;-72
2021/07/17 09:25:13;;;;;;;;;9.75;9.75;;;;;27.39;42.70;102562.97;5059208;28;45541;-71
2021/07/17 09:27:39;;;;;;;;;10.50;10.50;;;;;27.36;43.12;102544.59;5060398;28;46345;-71
2021/07/17 09:30:24;;;;;;;;;9.25;9.25;;;;;27.35;43.11;102534.91;5063524;28;45278;-71
2021/07/17 09:33:01;;;;;;;;;9.00;9.00;;;;;27.40;43.18;102537.06;5060331;28;45418;-71
2021/07/17 09:35:27;;;;;;;;;11.50;10.75;;;;;27.49;42.72;102537.84;5063852;28;45956;-71
2021/07/17 09:37:54;;;;;;;;;10.25;9.50;;;;;27.55;42.34;102536.31;5077162;27;47145;-71
2021/07/17 09:40:19;;;;;;;;;10.50;9.25;;;;;27.60;42.75;102547.28;5060058;28;45329;-71
2021/07/17 09:42:45;;;;;;;;;11.00;9.50;;;;;27.54;42.61;102534.63;5074125;28;45340;-72
2021/07/17 09:45:10;;;;;;;;;11.50;11.50;;;;;27.53;42.49;102528.47;5080525;28;45675;-71
2021/07/17 09:47:36;;;;;;;;;8.00;7.75;;;;;27.53;42.85;102531.16;5080342;28;46653;-72
2021/07/17 09:50:16;;;;;;;;;9.50;9.50;;;;;27.61;42.43;102538.28;5079250;28;45834;-71
2021/07/17 09:52:45;;;;;;;;;11.50;10.25;;;;;27.62;42.49;102534.56;5063342;28;45504;-72
2021/07/17 09:55:16;;;;;;;;;11.00;11.00;;;;;27.59;42.59;102526.91;5060304;28;45372;-71
2021/07/17 09:57:42;;;;;;;;;9.50;8.75;;;;;27.71;42.81;102538.84;5058283;28;45514;-72
2021/07/17 10:00:15;;;;;;;;;12.50;8.75;;;;;27.77;42.32;102547.16;5060035;28;45390;-72
2021/07/17 10:02:41;;;;;;;;;11.50;9.25;;;;;27.80;42.63;102554.88;5058840;28;45246;-71
2021/07/17 10:05:14;;;;;;;;;8.75;8.50;;;;;27.74;42.12;102543.84;5057457;28;45308;-71
2021/07/17 10:07:40;;;;;;;;;10.00;8.25;;;;;27.78;42.17;102543.50;5059888;28;45508;-71
2021/07/17 10:10:06;;;;;;;;;11.25;9.25;;;;;27.84;42.06;102550.84;5075317;28;45232;-71
2021/07/17 10:12:37;;;;;;;;;11.75;9.50;;;;;27.85;42.61;102549.81;5059712;28;45293;-71
2021/07/17 10:15:08;;;;;;;;;12.75;12.00;;;;;27.62;42.03;102516.69;5058293;28;45474;-71
2021/07/17 10:17:34;;;;;;;;;8.25;8.00;;;;;27.66;42.25;102519.03;5060142;28;46251;-71
2021/07/17 10:20:01;;;;;;;;;12.00;11.50;;;;;27.89;42.66;102539.59;5058394;28;45757;-71
2021/07/17 10:22:26;;;;;;;;;9.75;9.25;;;;;27.68;42.65;102504.47;5060291;28;45213;-71
2021/07/17 10:24:52;;;;;;;;;9.50;9.00;;;;;27.89;42.56;102545.78;5059681;28;45609;-71
2021/07/17 10:27:17;;;;;;;;;10.00;10.00;;;;;27.72;42.50;102507.59;5058857;28;46152;-71
2021/07/17 10:29:44;;;;;;;;;9.50;9.50;;;;;27.89;42.35;102531.56;5068088;28;45201;-71
2021/07/17 10:32:09;;;;;;;;;10.00;10.00;;;;;27.60;42.29;102483.13;5063305;28;45224;-71
2021/07/17 10:34:35;;;;;;;;;12.25;11.50;;;;;27.80;42.69;102520.94;5062841;28;45264;-71
2021/07/17 10:37:20;;;;;;;;;11.50;11.50;;;;;27.73;42.54;102506.59;5069649;28;45450;-71
2021/07/17 10:40:06;;;;;;;;;12.25;9.50;;;;;27.87;42.76;102526.38;5066104;27;45232;-71
2021/07/17 10:42:32;;;;;;;;;10.00;9.75;;;;;27.57;42.25;102478.13;5077032;28;45334;-71
2021/07/17 10:44:58;;;;;;;;;10.75;10.75;;;;;27.80;42.40;102518.25;5083306;28;45448;-71
2021/07/17 10:47:38;;;;;;;;;11.25;10.00;;;;;27.70;42.38;102498.94;5083355;28;45401;-71
2021/07/17 10:50:06;;;;;;;;;12.25;10.75;;;;;27.69;42.47;102498.09;5062676;27;45269;-71
2021/07/17 10:52:43;;;;;;;;;9.75;9.25;;;;;27.83;42.42;102509.88;5062846;28;45372;-71
2021/07/17 10:55:38;;;;;;;;;12.75;11.00;;;;;27.84;42.57;102527.59;5062891;28;45612;-71
2021/07/17 10:58:12;;;;;;;;;11.75;10.75;;;;;27.85;42.34;102521.22;5070005;28;46334;-71
2021/07/17 11:00:49;;;;;;;;;10.75;9.50;;;;;27.82;42.82;102516.22;5065753;28;45379;-71
2021/07/17 11:03:32;;;;;;;;;13.00;10.00;;;;;27.77;42.48;102499.88;5061600;28;45343;-71
2021/07/17 11:06:33;;;;;;;;;12.00;10.25;;;;;27.83;42.83;102514.41;5060692;28;45918;-71
2021/07/17 11:09:27;;;;;;;;;11.25;11.25;;;;;27.82;42.54;102513.56;5060431;28;47157;-71
2021/07/17 11:12:19;;;;;;;;;10.75;10.75;;;;;27.80;42.69;102510.25;5062152;27;45431;-71
2021/07/17 11:14:45;;;;;;;;;11.50;10.00;;;;;27.58;43.07;102480.66;5062789;28;45326;-71
2021/07/17 11:17:11;;;;;;;;;12.25;10.25;;;;;27.64;42.96;102487.09;5061893;28;45259;-71
2021/07/17 11:19:36;;;;;;;;;10.50;10.00;;;;;27.59;42.87;102474.28;5061271;28;47290;-71
2021/07/17 11:22:13;;;;;;;;;9.00;8.75;;;;;27.76;42.29;102516.09;5061912;28;45328;-71